createdAt,value
2023-03-01T00:02:33.326Z,20.45
2023-03-01T00:05:35.912Z,26.33
2023-03-01T00:08:38.842Z,19.98
2023-03-01T00:11:41.783Z,21.30
2023-03-01T00:14:44.388Z,19.10
2023-03-01T00:17:48.354Z,20.88
2023-03-01T00:20:52.604Z,17.90
2023-03-01T00:23:55.943Z,18.45
2023-03-01T00:26:58.586Z,17.92
2023-03-01T00:30:01.644Z,24.77
2023-03-01T00:33:05.938Z,22.10
2023-03-01T00:36:08.998Z,21.95
2023-03-01T00:39:13.877Z,18.90
2023-03-01T00:42:17.057Z,20.40
2023-03-01T00:45:19.902Z,21.00
2023-03-01T00:48:24.130Z,18.20
2023-03-01T00:51:29.079Z,19.85
2023-03-01T00:54:31.821Z,21.58
2023-03-01T00:57:34.556Z,20.08
2023-03-01T01:00:37.745Z,22.98
2023-03-01T01:03:41.692Z,22.52
2023-03-01T01:06:46.158Z,21.33
2023-03-01T01:09:48.834Z,23.33
2023-03-01T01:12:51.723Z,24.27
2023-03-01T01:15:54.355Z,23.00
2023-03-01T01:18:58.928Z,25.13
2023-03-01T01:22:01.499Z,22.40
2023-03-01T01:25:04.635Z,21.25
2023-03-01T01:28:07.246Z,20.65
2023-03-01T01:31:09.983Z,21.42
2023-03-01T01:34:18.303Z,19.70
2023-03-01T01:37:21.073Z,20.23
2023-03-01T01:40:23.676Z,18.13
2023-03-01T01:43:28.584Z,19.10
2023-03-01T01:46:34.105Z,20.52
2023-03-01T01:49:40.407Z,24.38
2023-03-01T01:52:43.134Z,22.02
2023-03-01T01:55:48.245Z,23.65
2023-03-01T01:58:51.555Z,21.13
2023-03-01T02:01:54.653Z,22.20
2023-03-01T02:05:05.121Z,16.33
2023-03-01T02:08:08.342Z,22.13
2023-03-01T02:11:12.380Z,23.92
2023-03-01T02:14:15.231Z,23.17
2023-03-01T02:17:19.955Z,22.43
2023-03-01T02:20:28.914Z,21.37
2023-03-01T02:23:31.618Z,18.83
2023-03-01T02:26:37.956Z,20.27
2023-03-01T02:29:44.980Z,23.97
2023-03-01T02:32:47.983Z,23.80
2023-03-01T02:35:50.751Z,22.73
2023-03-01T02:38:55.526Z,21.10
2023-03-01T02:42:00.075Z,21.30
2023-03-01T02:45:04.713Z,20.17
2023-03-01T02:48:07.624Z,22.60
2023-03-01T02:51:15.365Z,23.77
2023-03-01T02:54:24.916Z,22.20
2023-03-01T02:57:29.753Z,20.80
2023-03-01T03:00:40.979Z,19.93
2023-03-01T03:03:44.045Z,19.93
2023-03-01T03:06:46.931Z,17.08
2023-03-01T03:09:49.533Z,21.40
2023-03-01T03:12:53.301Z,21.80
2023-03-01T03:15:58.376Z,21.40
2023-03-01T03:19:06.023Z,20.67
2023-03-01T03:22:09.949Z,24.90
2023-03-01T03:28:16.842Z,24.63
2023-03-01T03:31:21.244Z,16.87
2023-03-01T03:34:24.273Z,25.47
2023-03-01T03:37:52.794Z,21.23
2023-03-01T03:41:03.274Z,22.37
2023-03-01T03:44:06.157Z,19.47
2023-03-01T03:47:10.134Z,21.00
2023-03-01T03:50:14.000Z,20.97
2023-03-01T03:56:19.042Z,20.67
2023-03-01T03:59:21.691Z,20.83
2023-03-01T04:02:27.347Z,21.70
2023-03-01T04:05:30.550Z,24.60
2023-03-01T04:08:33.495Z,22.02
2023-03-01T04:11:36.180Z,30.00
2023-03-01T04:14:38.924Z,22.23
2023-03-01T04:17:44.011Z,25.17
2023-03-01T04:20:47.649Z,32.10
2023-03-01T04:23:53.488Z,23.90
2023-03-01T04:26:56.172Z,20.87
2023-03-01T04:29:58.751Z,27.73
2023-03-01T04:33:03.757Z,20.07
2023-03-01T04:36:09.730Z,24.07
2023-03-01T04:39:14.100Z,25.30
2023-03-01T04:42:17.699Z,26.60
2023-03-01T04:45:20.601Z,23.40
2023-03-01T04:48:24.716Z,23.75
2023-03-01T04:51:27.518Z,25.43
2023-03-01T04:54:30.387Z,24.40
2023-03-01T04:57:33.135Z,24.27
2023-03-01T05:00:35.825Z,23.33
2023-03-01T05:03:40.764Z,25.90
2023-03-01T05:06:44.681Z,26.03
2023-03-01T05:09:47.817Z,23.90
2023-03-01T05:12:50.435Z,23.35
2023-03-01T05:15:57.920Z,26.33
2023-03-01T05:19:02.280Z,26.70
2023-03-01T05:22:05.855Z,21.73
2023-03-01T05:25:09.331Z,22.90
2023-03-01T05:28:13.738Z,24.27
2023-03-01T05:31:16.768Z,22.43
2023-03-01T05:34:23.783Z,19.75
2023-03-01T05:37:26.605Z,22.63
2023-03-01T05:40:30.308Z,24.90
2023-03-01T05:43:34.890Z,20.50
2023-03-01T05:46:37.606Z,19.87
2023-03-01T05:49:41.875Z,26.90
2023-03-01T05:52:44.429Z,23.37
2023-03-01T05:55:48.438Z,24.60
2023-03-01T05:58:51.395Z,21.33
2023-03-01T06:01:54.509Z,31.45
2023-03-01T06:04:59.871Z,25.13
2023-03-01T06:08:03.258Z,21.40
2023-03-01T06:11:06.364Z,22.67
2023-03-01T06:14:11.451Z,26.98
2023-03-01T06:17:14.248Z,26.33
2023-03-01T06:20:20.267Z,29.57
2023-03-01T06:23:22.922Z,21.50
2023-03-01T06:26:25.727Z,24.00
2023-03-01T06:29:28.562Z,24.40
2023-03-01T06:32:32.085Z,27.47
2023-03-01T06:35:36.157Z,24.83
2023-03-01T06:38:38.836Z,21.87
2023-03-01T06:41:42.039Z,23.90
2023-03-01T06:44:46.819Z,24.92
2023-03-01T06:47:50.051Z,25.73
2023-03-01T06:50:54.168Z,25.58
2023-03-01T06:53:56.822Z,27.00
2023-03-01T06:56:59.440Z,25.53
2023-03-01T07:00:02.462Z,23.27
2023-03-01T07:03:05.255Z,26.17
2023-03-01T07:06:09.263Z,25.33
2023-03-01T07:09:11.804Z,24.87
2023-03-01T07:12:14.670Z,29.80
2023-03-01T07:15:17.925Z,22.73
2023-03-01T07:18:20.598Z,23.95
2023-03-01T07:21:24.567Z,26.07
2023-03-01T07:24:27.375Z,31.60
2023-03-01T07:27:30.088Z,24.83
2023-03-01T07:30:33.072Z,28.60
2023-03-01T07:33:35.662Z,25.50
2023-03-01T07:36:40.505Z,27.53
2023-03-01T07:39:43.284Z,29.00
2023-03-01T07:42:45.911Z,27.57
2023-03-01T07:45:48.591Z,25.73
2023-03-01T07:48:51.223Z,31.30
2023-03-01T07:51:55.390Z,24.77
2023-03-01T07:54:58.382Z,30.57
2023-03-01T07:58:01.055Z,24.67
2023-03-01T08:04:31.409Z,25.43
2023-03-01T08:07:35.518Z,29.47
2023-03-01T08:10:38.213Z,28.57
2023-03-01T08:13:40.903Z,30.03
2023-03-01T08:16:43.832Z,26.50
2023-03-01T08:19:46.840Z,27.70
2023-03-01T08:22:50.842Z,26.92
2023-03-01T08:25:53.957Z,25.43
2023-03-01T08:28:56.618Z,30.45
2023-03-01T08:31:59.478Z,28.97
2023-03-01T08:35:02.284Z,26.93
2023-03-01T08:38:06.253Z,25.47
2023-03-01T08:44:11.898Z,30.23
2023-03-01T08:47:14.507Z,26.83
2023-03-01T08:50:17.733Z,25.50
2023-03-01T08:53:21.733Z,28.10
2023-03-01T08:56:24.303Z,27.23
2023-03-01T08:59:27.795Z,27.47
2023-03-01T09:02:30.561Z,28.48
2023-03-01T09:05:33.422Z,27.90
2023-03-01T09:08:38.096Z,24.87
2023-03-01T09:11:40.683Z,26.90
2023-03-01T09:14:43.312Z,24.80
2023-03-01T09:17:46.114Z,28.20
2023-03-01T09:20:48.704Z,24.77
2023-03-01T09:23:52.811Z,19.27
2023-03-01T09:26:56.395Z,31.43
2023-03-01T09:29:59.020Z,23.05
2023-03-01T09:33:01.922Z,23.23
2023-03-01T09:36:06.355Z,25.27
2023-03-01T09:39:10.477Z,24.27
2023-03-01T09:42:14.410Z,26.80
2023-03-01T09:48:24.529Z,20.55
2023-03-01T09:51:34.235Z,25.23
2023-03-01T09:54:38.291Z,26.03
2023-03-01T09:57:48.481Z,22.97
2023-03-01T10:00:52.113Z,22.97
2023-03-01T10:04:05.813Z,24.02
2023-03-01T10:07:18.253Z,28.05
2023-03-01T10:10:29.452Z,26.07
2023-03-01T10:13:39.989Z,24.80
2023-03-01T10:16:46.071Z,23.47
2023-03-01T10:19:49.434Z,22.53
2023-03-01T10:22:53.634Z,29.08
2023-03-01T10:26:07.381Z,27.40
2023-03-01T10:29:11.692Z,25.73
2023-03-01T10:32:14.504Z,20.10
2023-03-01T10:35:19.459Z,25.47
2023-03-01T10:38:22.644Z,22.67
2023-03-01T10:41:28.213Z,23.80
2023-03-01T10:44:45.883Z,26.43
2023-03-01T10:47:48.633Z,21.37
2023-03-01T10:50:52.642Z,24.33
2023-03-01T10:53:55.243Z,25.30
2023-03-01T10:57:01.595Z,22.00
2023-03-01T11:00:23.711Z,21.97
2023-03-01T11:03:28.455Z,22.77
2023-03-01T11:06:31.088Z,21.70
2023-03-01T11:09:39.515Z,19.53
2023-03-01T11:12:43.567Z,24.67
2023-03-01T11:16:00.724Z,20.07
2023-03-01T11:19:17.647Z,23.57
2023-03-01T11:22:22.535Z,23.13
2023-03-01T11:25:29.013Z,19.13
2023-03-01T11:28:33.066Z,22.37
2023-03-01T11:31:39.077Z,21.43
2023-03-01T11:34:46.158Z,25.97
2023-03-01T11:38:00.134Z,27.93
2023-03-01T11:44:13.795Z,20.73
2023-03-01T11:47:25.280Z,21.60
2023-03-01T11:50:31.833Z,20.07
2023-03-01T11:53:52.644Z,23.87
2023-03-01T11:56:58.367Z,22.20
2023-03-01T12:00:20.262Z,24.13
2023-03-01T12:03:28.663Z,20.37
2023-03-01T12:06:38.702Z,23.97
2023-03-01T12:09:52.769Z,21.07
2023-03-01T12:13:28.284Z,20.03
2023-03-01T12:16:42.925Z,21.47
2023-03-01T12:19:58.709Z,21.83
2023-03-01T12:23:21.107Z,20.00
2023-03-01T12:26:29.958Z,22.83
2023-03-01T12:29:35.793Z,23.73
2023-03-01T12:32:49.603Z,34.43
2023-03-01T12:36:16.281Z,17.98
2023-03-01T12:39:34.428Z,19.30
2023-03-01T12:42:48.485Z,20.23
2023-03-01T12:45:59.869Z,20.67
2023-03-01T12:49:11.149Z,17.93
2023-03-01T12:52:17.465Z,18.43
2023-03-01T12:55:30.230Z,16.30
2023-03-01T12:58:48.689Z,19.90
2023-03-01T13:01:58.738Z,17.90
2023-03-01T13:05:09.558Z,18.63
2023-03-01T13:08:18.499Z,18.43
2023-03-01T13:11:23.208Z,17.83
2023-03-01T13:14:48.275Z,19.70
2023-03-01T13:17:52.513Z,21.67
2023-03-01T13:20:58.430Z,16.67
2023-03-01T13:24:01.067Z,16.20
2023-03-01T13:27:25.926Z,13.83
2023-03-01T13:30:44.019Z,14.83
2023-03-01T13:33:48.340Z,14.27
2023-03-01T13:36:52.522Z,16.17
2023-03-01T13:39:55.228Z,17.33
2023-03-01T13:43:05.582Z,20.25
2023-03-01T13:46:15.015Z,17.47
2023-03-01T13:49:19.672Z,21.40
2023-03-01T13:52:34.488Z,20.33
2023-03-01T13:55:40.635Z,19.63
2023-03-01T13:58:49.745Z,20.83
2023-03-01T14:01:54.757Z,18.33
2023-03-01T14:05:02.082Z,20.63
2023-03-01T14:08:06.912Z,21.27
2023-03-01T14:11:34.588Z,20.40
2023-03-01T14:14:44.758Z,21.90
2023-03-01T14:17:53.159Z,20.87
2023-03-01T14:20:55.917Z,23.37
2023-03-01T14:24:00.569Z,29.42
2023-03-01T14:27:03.674Z,26.63
2023-03-01T14:30:13.617Z,25.52
2023-03-01T14:33:25.733Z,22.93
2023-03-01T14:36:29.756Z,20.87
2023-03-01T14:39:34.328Z,19.03
2023-03-01T14:42:38.489Z,21.13
2023-03-01T14:45:41.135Z,19.20
2023-03-01T14:48:43.785Z,19.42
2023-03-01T14:51:53.566Z,23.67
2023-03-01T14:54:57.585Z,16.53
2023-03-01T14:58:03.130Z,20.13
2023-03-01T15:01:07.348Z,23.60
2023-03-01T15:04:13.636Z,20.07
2023-03-01T15:07:16.667Z,21.17
2023-03-01T15:10:23.154Z,19.10
2023-03-01T15:13:27.376Z,18.13
2023-03-01T15:16:32.526Z,23.00
2023-03-01T15:19:35.466Z,20.07
2023-03-01T15:22:38.118Z,25.10
2023-03-01T15:25:46.870Z,25.25
2023-03-01T15:28:52.024Z,19.63
2023-03-01T15:31:59.821Z,20.90
2023-03-01T15:35:11.436Z,20.67
2023-03-01T15:38:27.966Z,25.07
2023-03-01T15:41:33.279Z,22.33
2023-03-01T15:44:43.829Z,22.13
2023-03-01T15:47:51.059Z,21.17
2023-03-01T15:50:56.743Z,21.23
2023-03-01T15:54:01.993Z,21.87
2023-03-01T15:57:05.963Z,20.83
2023-03-01T16:00:12.554Z,22.57
2023-03-01T16:03:15.187Z,23.53
2023-03-01T16:06:17.801Z,19.23
2023-03-01T16:09:20.580Z,20.53
2023-03-01T16:12:25.205Z,21.33
2023-03-01T16:15:31.946Z,17.43
2023-03-01T16:18:35.500Z,24.77
2023-03-01T16:21:38.732Z,21.57
2023-03-01T16:24:41.894Z,22.30
2023-03-01T16:27:46.566Z,26.38
2023-03-01T16:30:50.326Z,22.53
2023-03-01T16:40:00.294Z,20.70
2023-03-01T16:43:04.471Z,22.80
2023-03-01T16:46:12.477Z,21.30
2023-03-01T16:49:15.274Z,25.27
2023-03-01T16:52:22.868Z,23.52
2023-03-01T16:55:25.642Z,23.27
2023-03-01T16:58:29.721Z,22.90
2023-03-01T17:01:38.469Z,22.53
2023-03-01T17:04:41.503Z,22.87
2023-03-01T17:07:44.375Z,22.92
2023-03-01T17:10:46.971Z,23.10
2023-03-01T17:13:50.971Z,21.17
2023-03-01T17:16:54.001Z,29.90
2023-03-01T17:19:57.446Z,20.77
2023-03-01T17:23:00.074Z,21.73
2023-03-01T17:26:03.026Z,27.53
2023-03-01T17:29:07.349Z,25.58
2023-03-01T17:32:10.961Z,26.33
2023-03-01T17:35:13.878Z,21.83
2023-03-01T17:38:17.128Z,24.38
2023-03-01T17:41:20.838Z,33.72
2023-03-01T17:44:25.208Z,24.65
2023-03-01T17:47:28.118Z,26.53
2023-03-01T17:50:30.859Z,32.30
2023-03-01T17:53:33.585Z,38.20
2023-03-01T17:56:38.757Z,37.03
2023-03-01T17:59:42.823Z,30.33
2023-03-01T18:02:46.133Z,30.53
2023-03-01T18:05:49.307Z,24.80
2023-03-01T18:08:53.563Z,35.47
2023-03-01T18:11:56.303Z,28.43
2023-03-01T18:15:00.307Z,35.17
2023-03-01T18:18:02.945Z,28.33
2023-03-01T18:21:06.341Z,29.03
2023-03-01T18:24:09.092Z,27.95
2023-03-01T18:27:12.074Z,27.30
2023-03-01T18:30:17.194Z,28.92
2023-03-01T18:33:19.824Z,26.77
2023-03-01T18:36:24.361Z,38.13
2023-03-01T18:39:27.006Z,28.87
2023-03-01T18:42:29.658Z,28.60
2023-03-01T18:45:33.736Z,30.33
2023-03-01T18:48:37.124Z,36.53
2023-03-01T18:51:40.482Z,28.75
2023-03-01T18:54:43.184Z,36.38
2023-03-01T18:57:45.810Z,27.80
2023-03-01T19:00:49.820Z,26.43
2023-03-01T19:03:54.737Z,37.23
2023-03-01T19:06:57.896Z,39.37
2023-03-01T19:10:00.769Z,38.67
2023-03-01T19:13:03.533Z,38.27
2023-03-01T19:16:09.802Z,36.97
2023-03-01T19:19:13.266Z,29.33
2023-03-01T19:22:16.105Z,30.35
2023-03-01T19:25:19.400Z,34.43
2023-03-01T19:28:22.058Z,29.40
2023-03-01T19:31:28.591Z,33.67
2023-03-01T19:34:31.931Z,31.30
2023-03-01T19:37:35.529Z,34.67
2023-03-01T19:40:38.489Z,31.77
2023-03-01T19:43:41.722Z,31.30
2023-03-01T19:46:45.977Z,31.75
2023-03-01T19:49:48.715Z,28.27
2023-03-01T19:52:52.600Z,30.73
2023-03-01T19:59:04.701Z,24.60
2023-03-01T20:02:10.438Z,34.23
2023-03-01T20:05:13.323Z,27.93
2023-03-01T20:08:15.995Z,38.67
2023-03-01T20:11:20.305Z,30.60
2023-03-01T20:14:24.431Z,31.93
2023-03-01T20:17:28.601Z,30.27
2023-03-01T20:20:31.371Z,28.40
2023-03-01T20:23:34.009Z,28.87
2023-03-01T20:26:37.548Z,34.87
2023-03-01T20:29:40.381Z,33.00
2023-03-01T20:32:45.026Z,30.30
2023-03-01T20:35:48.038Z,34.47
2023-03-01T20:38:50.779Z,29.90
2023-03-01T20:41:54.386Z,28.90
2023-03-01T20:44:57.330Z,32.45
2023-03-01T20:48:17.385Z,30.25
2023-03-01T20:51:20.494Z,27.20
2023-03-01T20:54:23.113Z,29.75
2023-03-01T20:57:25.939Z,29.63
2023-03-01T21:00:29.360Z,30.17
2023-03-01T21:03:38.797Z,30.92
2023-03-01T21:06:46.139Z,31.90
2023-03-01T21:09:49.106Z,30.10
2023-03-01T21:12:51.806Z,29.33
2023-03-01T21:15:54.838Z,31.80
2023-03-01T21:19:01.555Z,31.10
2023-03-01T21:22:06.803Z,28.73
2023-03-01T21:25:09.851Z,33.80
2023-03-01T21:28:12.466Z,38.58
2023-03-01T21:31:17.062Z,31.07
2023-03-01T21:34:21.108Z,27.07
2023-03-01T21:37:27.828Z,26.20
2023-03-01T21:40:30.449Z,30.83
2023-03-01T21:43:33.133Z,32.50
2023-03-01T21:46:37.902Z,65.63
2023-03-01T21:49:41.897Z,41.50
2023-03-01T21:52:44.703Z,44.67
2023-03-01T21:55:48.043Z,49.83
2023-03-01T21:58:50.873Z,51.13
2023-03-01T22:01:53.622Z,36.17
2023-03-01T22:04:57.653Z,44.93
2023-03-01T22:08:00.329Z,32.40
2023-03-01T22:11:03.511Z,41.87
2023-03-01T22:14:06.704Z,40.67
2023-03-01T22:17:09.262Z,40.00
2023-03-01T22:20:14.327Z,40.83
2023-03-01T22:23:16.925Z,34.63
2023-03-01T22:26:24.367Z,32.50
2023-03-01T22:29:28.942Z,37.77
2023-03-01T22:32:32.046Z,29.03
2023-03-01T22:35:36.098Z,30.23
2023-03-01T22:38:39.442Z,30.93
2023-03-01T22:41:45.663Z,28.75
2023-03-01T22:44:48.361Z,28.77
2023-03-01T22:47:51.159Z,30.47
2023-03-01T22:50:55.179Z,30.73
2023-03-01T22:54:05.139Z,31.37
2023-03-01T22:57:09.052Z,27.77
2023-03-01T23:03:17.378Z,31.38
2023-03-01T23:06:22.894Z,29.60
2023-03-01T23:09:27.477Z,32.33
2023-03-01T23:12:30.141Z,29.97
2023-03-01T23:15:32.941Z,31.67
2023-03-01T23:18:35.653Z,34.37
2023-03-01T23:21:44.156Z,30.00
2023-03-01T23:24:47.646Z,36.43
2023-03-01T23:27:50.247Z,27.90
2023-03-01T23:30:57.728Z,33.50
2023-03-01T23:34:00.471Z,33.47
2023-03-01T23:37:05.092Z,29.37
2023-03-01T23:40:09.001Z,27.50
2023-03-01T23:46:14.468Z,31.13
2023-03-01T23:49:19.463Z,28.77
2023-03-01T23:52:23.585Z,30.37
2023-03-01T23:55:27.126Z,30.33
2023-03-01T23:58:30.101Z,31.10
